Terminal Aerodrome Forecast
Issued by NWS

Home | Current Version | Previous Version | Text Only | Print | Product List | Glossary On
Versions: 1 2 3 4 5 6 7 8 9 10 11 12 13 14 15 16 17 18 19 20
000
FTUS43 KIND 170300 AAA
TAFHUF
TAF AMD
KHUF 170331Z 1704/1724 00000KT 2SM BR SKC
      TEMPO 1704/1708 1/2SM FG VV002
     FM170900 00000KT 1/2SM FG VV002
     FM171300 VRB03KT P6SM SCT035
     FM171600 24006KT P6SM BKN045=

USA.gov is the U.S. government's official web portal to all federal, state and local government web resources and services.